首页
METAR-TAF:

METAR-TAF

机场 :

Gage, 奧克拉荷馬州, 美国

纬度: 36-17-48N, 经度: 099-46-08W, 海拔: 677米

当前天气观测

该预报发布于36分钟前的02:53 UTC
静风
温度 3°C
湿度 52%
气压 1019 hPa
能見度: 16.1公里
天空无云

METAR: KGAG 140253Z AUTO 00000KT 10SM CLR 03/M06 A3009 RMK AO2 SLP202 T00281061 51035

时间: 21:29 (03:29 UTC)


TAF: 丢失

超过4000个机场的气象观测和天气预报(METAR&TAF报告)。

可查询的气象台以黄色和红色小点在地图上表示。

将鼠标移到小点上方,可查看气象台名称。

然后点击查看天气观测和预报。

如需切换地图:点击带黑十字的绿色按钮放大地图;点击带横线的绿色按钮缩小地图;或者点击绿色箭头查看邻近地区的地图。


METAR-TAF: